Time;durP1;ratioP1;P1;durP2;ratioP2;P2;SDS_P1;SDS_P2;PMS_P1;PMS_P2;Temp;Humidity;BMP_temperature;BMP_pressure;BME280_temperature;BME280_humidity;BME280_pressure;Samples;Min_cycle;Max_cycle;Signal;HPM_P1;HPM_P2
2022/06/05 00:02:30;;;;;;;7.35;3.58;;;20.20;99.90;;;;;;5034960;28;20029;-84
2022/06/05 00:05:14;;;;;;;6.95;3.55;;;20.20;99.90;;;;;;5034754;28;20024;-83
2022/06/05 00:08:05;;;;;;;7.90;3.95;;;20.20;99.90;;;;;;5034719;28;20047;-84
2022/06/05 00:10:39;;;;;;;6.30;3.50;;;20.10;99.90;;;;;;5016993;28;20029;-83
2022/06/05 00:13:05;;;;;;;5.47;3.58;;;20.20;99.90;;;;;;5034463;28;20029;-83
2022/06/05 00:15:32;;;;;;;5.30;3.10;;;20.10;99.90;;;;;;5016872;28;20393;-83
2022/06/05 00:17:58;;;;;;;4.75;3.70;;;20.10;99.90;;;;;;5034942;28;20022;-83
2022/06/05 00:20:24;;;;;;;5.25;3.75;;;20.10;99.90;;;;;;5016894;28;20060;-83
2022/06/05 00:22:50;;;;;;;5.30;3.40;;;20.10;99.90;;;;;;5031402;28;20076;-83
2022/06/05 00:25:16;;;;;;;7.78;3.80;;;20.10;99.90;;;;;;5036452;28;20032;-84
2022/06/05 00:27:57;;;;;;;3.42;3.10;;;20.10;99.90;;;;;;5036307;28;20500;-84
2022/06/05 00:30:44;;;;;;;5.95;3.33;;;20.10;99.90;;;;;;5036320;28;20430;-83
2022/06/05 00:33:15;;;;;;;3.92;3.28;;;20.10;99.90;;;;;;5054196;28;20541;-83
2022/06/05 00:36:02;;;;;;;13.32;3.55;;;20.10;99.90;;;;;;5036204;28;20476;-84
2022/06/05 00:38:51;;;;;;;3.47;3.05;;;20.10;99.90;;;;;;5036149;28;20115;-83
2022/06/05 00:41:38;;;;;;;5.90;3.30;;;20.10;99.90;;;;;;5035977;28;20060;-83
2022/06/05 00:44:04;;;;;;;4.43;3.38;;;20.10;99.90;;;;;;5054162;28;20467;-84
2022/06/05 00:46:32;;;;;;;4.88;3.42;;;20.10;99.90;;;;;;5054183;28;20027;-84
2022/06/05 00:48:58;;;;;;;6.47;3.40;;;20.10;99.90;;;;;;5053205;28;20506;-83
2022/06/05 00:51:24;;;;;;;5.43;3.30;;;20.00;99.90;;;;;;5053810;28;20092;-83
2022/06/05 00:53:50;;;;;;;5.03;3.13;;;20.10;99.90;;;;;;5035868;28;20020;-84
2022/06/05 00:56:17;;;;;;;5.25;3.38;;;20.00;99.90;;;;;;5035824;28;20029;-84
2022/06/05 00:58:43;;;;;;;4.20;3.25;;;20.00;99.90;;;;;;5053809;28;20060;-83
2022/06/05 01:01:09;;;;;;;5.53;3.35;;;20.00;99.90;;;;;;5035730;28;20040;-84
2022/06/05 01:03:35;;;;;;;4.05;3.35;;;20.00;99.90;;;;;;5053595;28;20431;-84
2022/06/05 01:06:01;;;;;;;6.95;3.20;;;20.10;99.90;;;;;;5035833;28;20112;-84
2022/06/05 01:08:27;;;;;;;5.40;3.00;;;20.00;99.90;;;;;;5053601;28;20110;-84
2022/06/05 01:11:20;;;;;;;5.85;3.30;;;20.00;99.90;;;;;;5035698;28;20021;-84
2022/06/05 01:14:06;;;;;;;6.18;3.30;;;20.00;99.90;;;;;;5035665;28;20028;-83
2022/06/05 01:16:41;;;;;;;3.20;2.90;;;20.00;99.90;;;;;;5035709;28;20033;-84
2022/06/05 01:19:44;;;;;;;4.68;3.38;;;20.00;99.90;;;;;;5035549;28;20396;-84
2022/06/05 01:22:33;;;;;;;7.50;3.20;;;20.00;99.90;;;;;;5035193;28;20540;-84
2022/06/05 01:25:33;;;;;;;4.82;3.20;;;20.00;99.90;;;;;;5053007;28;20495;-83
2022/06/05 01:28:08;;;;;;;6.40;3.47;;;20.00;99.90;;;;;;5053349;28;20476;-83
2022/06/05 01:30:38;;;;;;;;;;;20.00;99.90;;;;;;5035936;28;20027;-83
2022/06/05 01:33:15;;;;;;;5.88;3.17;;;20.00;99.90;;;;;;5053462;28;19904;-83
2022/06/05 01:35:57;;;;;;;6.05;3.20;;;20.00;99.90;;;;;;5053268;28;20056;-84
2022/06/05 01:38:38;;;;;;;10.10;4.43;;;19.90;99.90;;;;;;5035493;28;20051;-83
2022/06/05 01:41:13;;;;;;;6.43;3.42;;;19.90;99.90;;;;;;5035327;28;20440;-83
2022/06/05 01:43:42;;;;;;;;;;;19.90;99.90;;;;;;5035686;28;20025;-83
2022/06/05 01:46:33;;;;;;;4.47;3.35;;;19.90;99.90;;;;;;5035217;28;19904;-84
2022/06/05 01:49:18;;;;;;;4.18;3.42;;;20.00;99.90;;;;;;5035276;28;20035;-83
2022/06/05 01:51:52;;;;;;;4.00;3.60;;;19.90;99.90;;;;;;5035209;28;20472;-83
2022/06/05 01:54:27;;;;;;;5.97;3.60;;;19.90;99.90;;;;;;5035190;28;20503;-83
2022/06/05 01:56:56;;;;;;;5.03;3.83;;;19.90;99.90;;;;;;5035133;28;20064;-84
2022/06/05 01:59:39;;;;;;;7.88;4.13;;;19.90;99.90;;;;;;5053092;28;20105;-83
2022/06/05 02:02:09;;;;;;;4.10;3.70;;;19.90;99.90;;;;;;5034951;28;20056;-83
2022/06/05 02:04:38;;;;;;;5.43;3.78;;;19.90;99.90;;;;;;5035063;28;20104;-83
2022/06/05 02:07:10;;;;;;;6.38;3.80;;;19.90;99.90;;;;;;5053174;28;20021;-83
2022/06/05 02:09:52;;;;;;;5.25;3.83;;;19.90;99.90;;;;;;5035116;28;20021;-84
2022/06/05 02:12:18;;;;;;;7.15;3.85;;;19.90;99.90;;;;;;5035006;28;20029;-84
2022/06/05 02:14:45;;;;;;;5.85;4.15;;;19.90;99.90;;;;;;5052784;28;20025;-83
2022/06/05 02:17:11;;;;;;;7.55;4.03;;;19.90;99.90;;;;;;5052984;28;20021;-83
2022/06/05 02:19:37;;;;;;;12.32;3.72;;;19.90;99.90;;;;;;5034861;28;20108;-84
2022/06/05 02:22:11;;;;;;;6.07;4.05;;;19.80;99.90;;;;;;5034691;28;20127;-83
2022/06/05 02:24:37;;;;;;;5.95;4.00;;;19.80;99.90;;;;;;5034832;28;20116;-84
2022/06/05 02:27:05;;;;;;;4.95;4.20;;;19.80;99.90;;;;;;5034814;28;20067;-83
2022/06/05 02:29:32;;;;;;;5.55;4.15;;;19.90;99.90;;;;;;5053101;28;20017;-83
2022/06/05 02:32:04;;;;;;;5.22;3.88;;;19.80;99.90;;;;;;5052877;28;20017;-83
2022/06/05 02:34:41;;;;;;;4.70;3.90;;;19.80;99.90;;;;;;5034793;28;20029;-83
2022/06/05 02:37:18;;;;;;;5.63;4.05;;;19.80;99.90;;;;;;5054947;28;20492;-84
2022/06/05 02:40:08;;;;;;;4.97;3.65;;;19.80;99.90;;;;;;5039002;28;20024;-83
2022/06/05 02:42:38;;;;;;;5.82;4.35;;;19.80;99.90;;;;;;5038372;28;20028;-83
2022/06/05 02:45:07;;;;;;;4.90;3.75;;;19.80;99.90;;;;;;5056505;28;20468;-83
2022/06/05 02:48:08;;;;;;;4.18;3.78;;;19.80;99.90;;;;;;5038250;28;20124;-84
2022/06/05 02:50:52;;;;;;;5.07;3.80;;;19.80;99.90;;;;;;5056121;28;20078;-83
2022/06/05 02:53:18;;;;;;;5.35;4.00;;;19.80;99.90;;;;;;5056050;28;20104;-84
2022/06/05 02:55:44;;;;;;;6.50;3.72;;;19.80;99.90;;;;;;5055967;28;20076;-83
2022/06/05 02:58:12;;;;;;;5.18;4.00;;;19.80;99.90;;;;;;5056303;28;20061;-83
2022/06/05 03:00:39;;;;;;;6.35;3.90;;;19.80;99.90;;;;;;5055809;28;20028;-84
2022/06/05 03:05:50;;;;;;;5.82;3.60;;;19.80;99.90;;;;;;5056494;28;20035;-83
2022/06/05 03:08:18;;;;;;;8.38;4.18;;;19.80;99.90;;;;;;5055775;28;20096;-83
2022/06/05 03:10:47;;;;;;;6.55;4.43;;;19.80;99.90;;;;;;5037765;28;20028;-83
2022/06/05 03:13:13;;;;;;;5.30;3.90;;;19.80;99.90;;;;;;5055627;28;20463;-83
2022/06/05 03:15:41;;;;;;;6.68;4.07;;;19.80;99.90;;;;;;5037740;28;20037;-84
2022/06/05 03:18:07;;;;;;;4.55;3.67;;;19.80;99.90;;;;;;5055543;28;20032;-83
2022/06/05 03:20:34;;;;;;;6.18;3.83;;;19.80;99.90;;;;;;5055761;28;20036;-83
2022/06/05 03:23:00;;;;;;;5.70;4.00;;;19.80;99.90;;;;;;5037368;28;20041;-83
2022/06/05 03:25:26;;;;;;;5.05;3.83;;;19.80;99.90;;;;;;5037589;28;20025;-84
2022/06/05 03:27:53;;;;;;;6.30;3.92;;;19.80;99.90;;;;;;5037501;28;20032;-84
2022/06/05 03:30:19;;;;;;;4.20;3.80;;;19.80;99.90;;;;;;5055407;28;20044;-84
2022/06/05 03:32:46;;;;;;;4.90;3.97;;;19.80;99.90;;;;;;5055632;28;20021;-84
2022/06/05 03:35:13;;;;;;;3.85;3.50;;;19.80;99.90;;;;;;5037410;28;20029;-84
2022/06/05 03:37:39;;;;;;;6.15;3.90;;;19.80;99.90;;;;;;5037449;28;20025;-84
2022/06/05 03:40:15;;;;;;;6.28;3.72;;;19.80;99.90;;;;;;5037383;28;20461;-84
2022/06/05 03:42:42;;;;;;;5.70;3.80;;;19.70;99.90;;;;;;5055128;28;20025;-84
2022/06/05 03:45:12;;;;;;;5.07;3.63;;;19.80;99.90;;;;;;5055129;28;20013;-83
2022/06/05 03:47:39;;;;;;;6.25;4.40;;;19.70;99.90;;;;;;5036956;28;20477;-84
2022/06/05 03:50:06;;;;;;;7.18;4.22;;;19.70;99.90;;;;;;5054882;28;20025;-84
2022/06/05 03:52:32;;;;;;;6.72;4.40;;;19.70;99.90;;;;;;5037118;28;20076;-84
2022/06/05 03:54:57;;;;;;;5.82;4.00;;;19.70;99.90;;;;;;5054897;28;20021;-84
2022/06/05 03:57:23;;;;;;;6.18;4.20;;;19.70;99.90;;;;;;5055261;28;20033;-84
2022/06/05 03:59:49;;;;;;;8.15;4.43;;;19.70;99.90;;;;;;5054787;28;20060;-84
2022/06/05 04:02:14;;;;;;;4.20;3.80;;;19.70;99.90;;;;;;5036800;28;20021;-84
2022/06/05 04:04:40;;;;;;;6.50;4.32;;;19.70;99.90;;;;;;5036838;28;20416;-84
2022/06/05 04:07:07;;;;;;;7.43;4.63;;;19.70;99.90;;;;;;5036860;28;20025;-83
2022/06/05 04:09:33;;;;;;;6.57;4.25;;;19.70;99.90;;;;;;5036716;28;20067;-83
2022/06/05 04:11:58;;;;;;;8.15;4.30;;;19.70;99.90;;;;;;5036731;28;20052;-84
2022/06/05 04:14:24;;;;;;;5.35;4.40;;;19.70;99.90;;;;;;5036780;28;20048;-84
2022/06/05 04:16:50;;;;;;;5.63;4.05;;;19.70;99.90;;;;;;5054538;28;20053;-83
2022/06/05 04:19:15;;;;;;;5.18;4.18;;;19.70;99.90;;;;;;5036546;28;20028;-84
2022/06/05 04:21:44;;;;;;;6.82;4.22;;;19.70;99.90;;;;;;5050706;28;20100;-84
2022/06/05 04:24:11;;;;;;;5.25;4.00;;;19.70;99.90;;;;;;5016736;28;20037;-84
2022/06/05 04:26:40;;;;;;;5.45;4.00;;;19.70;99.90;;;;;;5034503;28;20031;-84
2022/06/05 04:29:05;;;;;;;7.93;4.25;;;19.70;99.90;;;;;;5016755;28;20021;-84
2022/06/05 04:31:51;;;;;;;5.80;4.35;;;19.70;99.90;;;;;;5016628;28;20044;-83
2022/06/05 04:34:20;;;;;;;7.15;4.13;;;19.70;99.90;;;;;;5016419;28;20085;-84
2022/06/05 04:36:46;;;;;;;4.50;3.90;;;19.70;99.90;;;;;;5016606;28;20361;-84
2022/06/05 04:39:13;;;;;;;7.20;3.90;;;19.70;99.90;;;;;;5016588;28;20025;-84
2022/06/05 04:41:40;;;;;;;5.63;3.90;;;19.70;99.90;;;;;;5034364;28;20492;-83
2022/06/05 04:44:07;;;;;;;5.45;4.22;;;19.70;99.90;;;;;;5033923;28;20496;-84
2022/06/05 04:46:34;;;;;;;4.95;4.45;;;19.70;99.90;;;;;;5016370;28;20025;-84
2022/06/05 04:49:00;;;;;;;4.75;3.80;;;19.70;99.90;;;;;;5016408;28;20018;-84
2022/06/05 04:51:27;;;;;;;5.25;4.32;;;19.70;99.90;;;;;;5016251;28;20076;-84
2022/06/05 04:53:54;;;;;;;5.38;3.85;;;19.70;99.90;;;;;;5016263;28;20034;-85
2022/06/05 04:56:23;;;;;;;7.55;4.50;;;19.60;99.90;;;;;;5016975;28;20033;-84
2022/06/05 04:58:49;;;;;;;8.20;4.03;;;19.70;99.90;;;;;;5016037;28;20021;-84
2022/06/05 05:01:29;;;;;;;5.75;4.13;;;19.70;99.90;;;;;;5015582;28;20171;-84
2022/06/05 05:03:58;;;;;;;4.85;4.20;;;19.60;99.90;;;;;;5016072;28;20049;-84
2022/06/05 05:06:24;;;;;;;5.40;4.65;;;19.60;99.90;;;;;;5016055;28;20579;-84
2022/06/05 05:08:50;;;;;;;7.43;5.38;;;19.60;99.90;;;;;;5016352;28;20018;-84
2022/06/05 05:11:18;;;;;;;6.47;5.05;;;19.60;99.90;;;;;;5033709;28;20435;-84
2022/06/05 05:13:44;;;;;;;6.32;4.57;;;19.60;99.90;;;;;;5016106;28;20026;-84
2022/06/05 05:16:10;;;;;;;7.75;4.45;;;19.60;99.90;;;;;;5016002;28;20033;-84
2022/06/05 05:18:37;;;;;;;7.88;4.60;;;19.60;99.90;;;;;;5015896;28;20025;-85
2022/06/05 05:21:08;;;;;;;9.10;4.43;;;19.60;99.90;;;;;;4999678;28;20522;-85
2022/06/05 05:23:34;;;;;;;5.22;4.10;;;19.60;99.90;;;;;;5034383;28;20047;-85
2022/06/05 05:26:08;;;;;;;7.53;4.80;;;19.60;99.90;;;;;;5035534;28;20021;-85
2022/06/05 05:28:34;;;;;;;8.02;4.82;;;19.60;99.90;;;;;;5053385;28;20025;-85
2022/06/05 05:31:00;;;;;;;6.57;4.57;;;19.60;99.90;;;;;;5035459;28;20052;-85
2022/06/05 05:33:25;;;;;;;7.13;4.82;;;19.60;99.90;;;;;;5053627;28;20067;-85
2022/06/05 05:35:54;;;;;;;7.05;5.50;;;19.60;99.90;;;;;;5018963;28;20508;-84
2022/06/05 05:38:19;;;;;;;10.07;5.30;;;19.60;99.90;;;;;;5036237;28;20106;-84
2022/06/05 05:43:29;;;;;;;6.95;4.45;;;19.50;99.90;;;;;;5053655;28;20115;-86
2022/06/05 05:45:55;;;;;;;6.97;5.15;;;19.50;99.90;;;;;;5053177;28;20108;-86
2022/06/05 05:48:21;;;;;;;8.30;5.22;;;19.50;99.90;;;;;;5053163;28;20074;-86
2022/06/05 05:50:47;;;;;;;6.97;4.72;;;19.50;99.90;;;;;;5053161;28;20033;-86
2022/06/05 05:53:13;;;;;;;6.53;4.70;;;19.50;99.90;;;;;;5035282;28;20021;-86
2022/06/05 05:55:39;;;;;;;5.93;5.13;;;19.50;99.90;;;;;;5036080;28;20024;-86
2022/06/05 05:58:04;;;;;;;6.75;5.40;;;19.50;99.90;;;;;;5035235;28;20035;-86
2022/06/05 06:00:30;;;;;;;6.22;4.75;;;19.50;99.90;;;;;;5035216;28;20029;-86
2022/06/05 06:02:57;;;;;;;10.23;5.43;;;19.50;99.90;;;;;;5035174;28;20032;-87
2022/06/05 06:05:23;;;;;;;6.82;4.72;;;19.50;99.90;;;;;;5035195;28;20029;-86
2022/06/05 06:07:48;;;;;;;8.10;5.20;;;19.50;99.90;;;;;;5034971;28;20021;-86
2022/06/05 06:10:14;;;;;;;5.97;4.60;;;19.50;99.90;;;;;;5035188;28;20025;-86
2022/06/05 06:12:41;;;;;;;6.43;4.38;;;19.50;99.90;;;;;;5038161;28;20025;-87
2022/06/05 06:15:07;;;;;;;6.70;4.78;;;19.50;99.90;;;;;;5039025;28;20033;-86
2022/06/05 06:17:35;;;;;;;5.50;4.70;;;19.50;99.90;;;;;;5038895;28;20077;-87
2022/06/05 06:20:00;;;;;;;5.07;4.35;;;19.50;99.90;;;;;;5038981;28;20032;-87
2022/06/05 06:22:26;;;;;;;6.82;4.47;;;19.50;99.90;;;;;;5038530;28;20053;-87
2022/06/05 06:24:52;;;;;;;4.88;4.25;;;19.50;99.90;;;;;;5038842;28;20025;-86
2022/06/05 06:27:18;;;;;;;7.22;4.60;;;19.50;99.90;;;;;;5038854;28;20101;-86
2022/06/05 06:29:44;;;;;;;7.68;4.65;;;19.50;99.90;;;;;;5038745;28;20021;-86
2022/06/05 06:32:10;;;;;;;5.43;4.40;;;19.50;99.90;;;;;;5038730;28;20110;-87
2022/06/05 06:34:36;;;;;;;5.35;4.18;;;19.50;99.90;;;;;;5038728;28;20167;-87
2022/06/05 06:37:02;;;;;;;5.38;4.30;;;19.50;99.90;;;;;;5056573;28;20029;-87
2022/06/05 06:39:28;;;;;;;4.47;4.07;;;19.40;99.90;;;;;;5038592;28;20025;-87
2022/06/05 06:41:54;;;;;;;5.75;4.20;;;19.40;99.90;;;;;;5038617;28;20087;-87
2022/06/05 06:44:20;;;;;;;6.22;4.78;;;19.40;99.90;;;;;;5038564;28;20024;-86
2022/06/05 06:46:46;;;;;;;6.88;4.50;;;19.40;99.90;;;;;;5038423;28;20018;-86
2022/06/05 06:49:12;;;;;;;5.18;4.47;;;19.40;99.90;;;;;;5038399;28;20083;-86
2022/06/05 06:51:38;;;;;;;5.95;4.15;;;19.40;99.90;;;;;;5056557;28;20029;-86
2022/06/05 06:54:04;;;;;;;7.88;4.28;;;19.40;99.90;;;;;;5038430;28;20025;-86
2022/06/05 06:56:32;;;;;;;6.18;4.32;;;19.40;99.90;;;;;;5038575;28;20021;-86
2022/06/05 06:58:59;;;;;;;5.05;4.03;;;19.40;99.90;;;;;;5038070;28;20028;-86
2022/06/05 07:01:25;;;;;;;5.28;4.05;;;19.40;99.90;;;;;;5038194;28;20029;-86
2022/06/05 07:03:51;;;;;;;5.47;4.10;;;19.40;99.90;;;;;;5038133;28;20409;-86
2022/06/05 07:06:17;;;;;;;5.70;4.28;;;19.40;99.90;;;;;;5038139;28;20025;-86
2022/06/05 07:08:44;;;;;;;4.60;4.00;;;19.40;99.90;;;;;;5038064;28;20549;-86
2022/06/05 07:11:15;;;;;;;5.03;3.88;;;19.40;99.90;;;;;;5038082;28;20021;-86
2022/06/05 07:13:41;;;;;;;6.35;4.05;;;19.40;99.90;;;;;;5038167;28;20029;-86
2022/06/05 07:16:09;;;;;;;5.60;3.78;;;19.40;99.90;;;;;;5037971;28;20061;-86
2022/06/05 07:18:35;;;;;;;5.53;3.58;;;19.40;99.90;;;;;;5037826;28;20480;-86
2022/06/05 07:21:13;;;;;;;5.25;3.90;;;19.40;99.90;;;;;;5037928;28;20086;-86
2022/06/05 07:23:39;;;;;;;6.90;3.67;;;19.40;99.90;;;;;;5036648;28;20087;-86
2022/06/05 07:26:08;;;;;;;6.90;4.00;;;19.40;99.90;;;;;;5021483;28;20025;-86
2022/06/05 07:28:34;;;;;;;4.35;3.60;;;19.40;99.90;;;;;;5037600;28;20104;-86
2022/06/05 07:31:02;;;;;;;4.13;3.63;;;19.40;99.90;;;;;;5037520;28;20063;-86
2022/06/05 07:33:30;;;;;;;5.57;4.05;;;19.40;99.90;;;;;;5037534;28;20029;-86
2022/06/05 07:35:57;;;;;;;6.85;3.42;;;19.40;99.90;;;;;;5037583;28;20032;-86
2022/06/05 07:38:23;;;;;;;5.22;3.67;;;19.40;99.90;;;;;;5055387;28;20029;-86
2022/06/05 07:40:49;;;;;;;5.18;3.58;;;19.40;99.90;;;;;;5021162;28;20480;-86
2022/06/05 07:43:14;;;;;;;3.83;3.42;;;19.50;99.90;;;;;;5037708;28;20116;-86
2022/06/05 07:45:43;;;;;;;4.30;3.67;;;19.50;99.90;;;;;;5037598;28;20052;-86
2022/06/05 07:48:09;;;;;;;4.20;3.63;;;19.50;99.90;;;;;;5037473;28;20028;-86
2022/06/05 07:54:26;;;;;;;4.72;3.80;;;19.50;99.90;;;;;;5037386;28;20021;-86
2022/06/05 07:56:04;;;;;;;3.97;3.58;;;19.50;99.90;;;;;;5055352;28;20103;-86
2022/06/05 07:58:30;;;;;;;3.92;3.30;;;19.50;99.90;;;;;;5037204;28;20028;-86
2022/06/05 08:00:56;;;;;;;5.03;3.10;;;19.60;99.90;;;;;;5037136;28;20078;-86
2022/06/05 08:03:21;;;;;;;5.80;4.00;;;19.60;99.90;;;;;;5038228;28;20388;-86
2022/06/05 08:05:47;;;;;;;8.35;3.38;;;19.70;99.90;;;;;;5037020;28;20021;-86
2022/06/05 08:08:13;;;;;;;3.72;3.17;;;19.70;99.90;;;;;;5037094;28;20024;-86
2022/06/05 08:10:38;;;;;;;3.60;3.30;;;19.70;99.90;;;;;;5036842;28;20036;-85
2022/06/05 08:13:04;;;;;;;5.15;3.13;;;19.80;99.90;;;;;;5037130;28;20025;-86
2022/06/05 08:15:30;;;;;;;3.78;3.20;;;19.80;99.90;;;;;;5054379;28;20049;-85
2022/06/05 08:17:55;;;;;;;4.43;3.20;;;19.80;99.90;;;;;;5054866;28;20036;-85
2022/06/05 08:20:22;;;;;;;7.85;3.53;;;19.80;99.90;;;;;;5036991;28;20044;-85
2022/06/05 08:22:48;;;;;;;4.38;3.60;;;19.90;99.90;;;;;;5044160;28;20103;-86
2022/06/05 08:25:14;;;;;;;4.53;3.25;;;19.90;99.90;;;;;;5017044;28;20155;-85
2022/06/05 08:27:40;;;;;;;4.40;3.40;;;19.90;99.90;;;;;;5016975;28;20450;-86
2022/06/05 08:30:07;;;;;;;4.18;3.30;;;19.90;99.90;;;;;;5016808;28;20026;-85
2022/06/05 08:32:33;;;;;;;3.95;3.15;;;19.90;99.90;;;;;;5034662;28;20033;-85
2022/06/05 08:34:58;;;;;;;3.38;2.92;;;20.00;99.90;;;;;;5016495;28;20018;-85
2022/06/05 08:43:24;;;;;;;4.32;3.25;;;20.00;99.90;;;;;;5034687;28;19916;-85
2022/06/05 08:46:02;;;;;;;4.25;3.20;;;20.10;99.90;;;;;;5016268;28;20033;-86
2022/06/05 08:48:41;;;;;;;6.00;3.20;;;20.10;99.90;;;;;;5016379;28;20033;-85
2022/06/05 08:51:20;;;;;;;5.60;3.28;;;20.10;99.90;;;;;;5016270;28;20025;-84
2022/06/05 08:54:10;;;;;;;4.38;3.22;;;20.20;99.90;;;;;;5016559;28;20037;-84
2022/06/05 08:56:40;;;;;;;8.02;3.63;;;20.10;99.90;;;;;;5016896;28;20477;-84
2022/06/05 08:59:23;;;;;;;5.38;3.60;;;20.10;99.90;;;;;;5016450;28;20554;-84
2022/06/05 09:01:51;;;;;;;4.80;3.40;;;20.20;99.90;;;;;;5016453;28;20032;-86
2022/06/05 09:04:37;;;;;;;5.13;3.20;;;20.20;99.90;;;;;;5016290;28;20543;-86
2022/06/05 09:07:10;;;;;;;3.45;3.15;;;20.20;99.90;;;;;;5015546;28;20038;-86
2022/06/05 09:09:46;;;;;;;4.90;3.83;;;20.10;99.90;;;;;;5016123;28;20025;-85
2022/06/05 09:12:20;;;;;;;5.20;3.40;;;20.20;99.90;;;;;;5016003;28;20481;-85
2022/06/05 09:14:59;;;;;;;7.38;3.55;;;20.20;99.90;;;;;;5015892;28;20025;-84
2022/06/05 09:17:26;;;;;;;5.22;3.40;;;20.20;99.90;;;;;;5033880;28;20029;-85
2022/06/05 09:19:53;;;;;;;7.65;3.50;;;20.20;99.90;;;;;;5015849;28;20021;-85
2022/06/05 09:22:42;;;;;;;4.97;3.50;;;20.30;99.90;;;;;;5022299;28;20470;-86
2022/06/05 09:25:20;;;;;;;3.92;3.25;;;20.30;99.90;;;;;;5035526;28;20031;-84
2022/06/05 09:28:24;;;;;;;5.78;3.47;;;20.30;99.90;;;;;;5053328;28;20017;-86
2022/06/05 09:30:49;;;;;;;4.60;3.45;;;20.40;99.90;;;;;;5035407;28;20480;-86
2022/06/05 09:33:17;;;;;;;4.78;3.47;;;20.40;99.90;;;;;;5035440;28;20032;-85
2022/06/05 09:35:51;;;;;;;5.10;3.63;;;20.40;99.90;;;;;;5035603;28;20040;-84
2022/06/05 09:38:36;;;;;;;4.60;3.28;;;20.40;99.90;;;;;;5053228;28;20435;-84
2022/06/05 09:41:10;;;;;;;3.97;2.90;;;20.40;99.90;;;;;;5035444;28;20448;-85
2022/06/05 09:43:46;;;;;;;4.47;3.63;;;20.40;99.90;;;;;;5035203;28;20029;-84
2022/06/05 09:46:19;;;;;;;5.65;3.38;;;20.40;99.90;;;;;;5052707;28;20021;-84
2022/06/05 09:48:48;;;;;;;6.45;4.28;;;20.50;99.90;;;;;;5053446;28;20032;-88
2022/06/05 09:51:15;;;;;;;5.38;4.13;;;20.50;99.90;;;;;;5035362;28;20052;-89
2022/06/05 09:54:26;;;;;;;7.45;4.40;;;20.50;99.90;;;;;;5035361;28;20021;-85
2022/06/05 09:59:55;;;;;;;6.78;4.82;;;20.60;99.90;;;;;;5052998;28;20036;-85
2022/06/05 10:02:23;;;;;;;7.32;4.78;;;20.50;99.90;;;;;;5035746;28;20032;-85
2022/06/05 10:04:50;;;;;;;7.05;4.55;;;20.50;99.90;;;;;;5053085;28;20029;-86
2022/06/05 10:07:32;;;;;;;9.60;5.13;;;20.50;99.90;;;;;;5035065;28;20055;-84
2022/06/05 10:10:03;;;;;;;11.75;5.57;;;20.40;99.90;;;;;;5035001;28;20032;-86
2022/06/05 10:12:42;;;;;;;7.88;5.50;;;20.40;99.90;;;;;;5034958;28;20021;-86
2022/06/05 10:15:44;;;;;;;10.50;5.70;;;20.30;99.90;;;;;;5035011;28;20476;-85
2022/06/05 10:18:31;;;;;;;10.18;4.85;;;20.30;99.90;;;;;;5034666;28;20027;-88
2022/06/05 10:21:04;;;;;;;7.47;5.22;;;20.20;99.90;;;;;;5034943;28;20025;-85
2022/06/05 10:24:12;;;;;;;10.60;6.00;;;20.20;99.90;;;;;;5002485;28;20053;-85
2022/06/05 10:26:45;;;;;;;8.43;5.50;;;20.20;99.90;;;;;;5031137;28;20025;-84
2022/06/05 10:29:14;;;;;;;15.07;5.40;;;20.10;99.90;;;;;;4998954;28;20025;-84
2022/06/05 10:31:46;;;;;;;9.65;5.57;;;20.10;99.90;;;;;;5032781;28;20036;-85
2022/06/05 10:34:23;;;;;;;9.77;5.88;;;20.00;99.90;;;;;;5015097;28;20172;-85
2022/06/05 10:37:04;;;;;;;9.98;5.90;;;20.00;99.90;;;;;;5014994;28;20202;-84
2022/06/05 10:40:01;;;;;;;7.78;5.63;;;20.00;99.90;;;;;;5015045;28;20056;-85
2022/06/05 10:42:38;;;;;;;10.75;5.57;;;20.10;99.90;;;;;;5032514;28;20029;-84
2022/06/05 10:45:34;;;;;;;7.30;4.90;;;20.00;99.90;;;;;;5032630;28;20109;-84
2022/06/05 10:48:19;;;;;;;8.48;5.50;;;20.00;99.90;;;;;;5032617;28;20056;-84
2022/06/05 10:51:10;;;;;;;6.15;4.80;;;20.10;99.90;;;;;;5032818;28;20555;-84
2022/06/05 10:53:36;;;;;;;6.50;4.72;;;20.00;99.90;;;;;;5014775;28;20060;-84
2022/06/05 10:56:09;;;;;;;7.53;4.43;;;20.10;99.90;;;;;;5032751;28;20103;-83
2022/06/05 10:58:45;;;;;;;7.72;5.35;;;20.10;99.90;;;;;;5033696;28;20029;-84
2022/06/05 11:01:25;;;;;;;8.60;5.05;;;20.00;99.90;;;;;;5018356;28;20412;-83
2022/06/05 11:04:00;;;;;;;6.03;4.05;;;20.00;99.90;;;;;;5036195;28;20072;-83
2022/06/05 11:06:30;;;;;;;5.63;3.85;;;20.00;99.90;;;;;;5036052;28;20024;-83
2022/06/05 11:09:18;;;;;;;5.78;3.90;;;20.00;99.90;;;;;;5018219;28;20388;-85
2022/06/05 11:15:11;;;;;;;5.65;4.18;;;20.00;99.90;;;;;;5035914;28;20079;-85
2022/06/05 11:18:05;;;;;;;6.78;4.35;;;20.00;99.90;;;;;;5017983;28;20021;-85
2022/06/05 11:20:34;;;;;;;7.35;3.90;;;20.00;99.90;;;;;;5017946;28;20080;-85
2022/06/05 11:23:08;;;;;;;5.93;3.72;;;20.10;99.90;;;;;;5029501;28;20196;-85
2022/06/05 11:25:52;;;;;;;6.70;4.25;;;20.10;99.90;;;;;;5037840;28;20123;-84
2022/06/05 11:28:54;;;;;;;5.70;3.53;;;20.10;99.90;;;;;;5055713;28;20044;-85
2022/06/05 11:31:40;;;;;;;8.73;4.13;;;20.20;99.90;;;;;;5055350;28;20029;-84
2022/06/05 11:34:29;;;;;;;6.00;3.25;;;20.30;99.90;;;;;;5037529;28;20484;-85
2022/06/05 11:37:14;;;;;;;5.60;3.35;;;20.40;99.90;;;;;;5037454;28;20028;-85
2022/06/05 11:39:52;;;;;;;7.90;3.58;;;20.50;99.90;;;;;;5037391;28;20024;-85
2022/06/05 11:42:30;;;;;;;6.68;3.22;;;20.60;99.90;;;;;;5055216;28;20025;-85
2022/06/05 11:45:26;;;;;;;4.43;2.60;;;20.60;99.90;;;;;;5037251;28;20025;-84
2022/06/05 11:48:11;;;;;;;5.07;2.63;;;20.70;99.90;;;;;;5037192;28;20021;-82
2022/06/05 11:50:49;;;;;;;3.72;2.67;;;20.80;99.90;;;;;;5053787;28;20535;-84
2022/06/05 11:53:33;;;;;;;4.63;2.67;;;20.80;99.90;;;;;;5037342;28;20130;-83
2022/06/05 11:56:09;;;;;;;5.57;3.10;;;20.90;99.90;;;;;;5055036;28;20025;-84
2022/06/05 11:58:47;;;;;;;5.70;2.70;;;20.90;99.90;;;;;;5036998;28;20182;-83
2022/06/05 12:01:18;;;;;;;5.07;3.00;;;20.80;99.90;;;;;;5036976;28;20107;-83
2022/06/05 12:03:59;;;;;;;5.50;2.67;;;20.80;99.90;;;;;;5036923;28;20495;-84
2022/06/05 12:06:51;;;;;;;5.13;2.33;;;20.80;99.90;;;;;;5036898;28;20369;-82
2022/06/05 12:09:23;;;;;;;4.75;2.28;;;20.70;99.90;;;;;;5036419;28;20048;-86
2022/06/05 12:12:08;;;;;;;5.07;2.45;;;20.80;99.90;;;;;;5036849;28;20028;-84
2022/06/05 12:14:46;;;;;;;8.00;2.42;;;20.80;99.90;;;;;;5036698;28;20025;-83
2022/06/05 12:17:25;;;;;;;4.88;2.60;;;20.70;99.90;;;;;;5054557;28;20127;-85
2022/06/05 12:20:20;;;;;;;6.95;2.55;;;20.70;99.90;;;;;;5036620;28;20043;-84
2022/06/05 12:22:48;;;;;;;;;;;20.80;99.90;;;;;;5019734;28;20040;-84
2022/06/05 12:25:39;;;;;;;5.43;2.35;;;20.90;99.90;;;;;;5036481;28;19935;-83
2022/06/05 12:28:18;;;;;;;4.78;1.90;;;21.00;99.90;;;;;;5036704;28;20029;-85
2022/06/05 12:30:56;;;;;;;7.10;2.25;;;21.00;99.90;;;;;;5036376;28;20025;-84
2022/06/05 12:33:37;;;;;;;5.18;2.13;;;21.00;99.90;;;;;;5036253;28;20025;-83
2022/06/05 12:36:36;;;;;;;6.45;2.30;;;21.10;99.90;;;;;;5036358;28;20029;-86
2022/06/05 12:39:07;;;;;;;3.97;1.98;;;21.10;99.90;;;;;;5036207;28;20029;-83
2022/06/05 12:42:11;;;;;;;2.35;1.48;;;21.20;99.90;;;;;;5036738;28;20388;-82
2022/06/05 12:44:50;;;;;;;7.22;2.20;;;21.20;99.90;;;;;;5036099;28;20053;-88
2022/06/05 12:47:50;;;;;;;3.60;1.67;;;21.20;99.90;;;;;;5054246;28;20032;-83
2022/06/05 12:50:34;;;;;;;6.80;2.10;;;21.20;99.90;;;;;;5037034;28;20049;-85
2022/06/05 12:53:25;;;;;;;5.17;1.60;;;21.30;99.90;;;;;;5036092;28;20119;-88
2022/06/05 12:56:13;;;;;;;8.25;2.20;;;21.30;99.90;;;;;;5054081;28;20021;-84
2022/06/05 12:58:48;;;;;;;5.80;1.83;;;21.30;99.90;;;;;;5035752;28;20397;-85
2022/06/05 13:01:20;;;;;;;5.07;1.80;;;21.30;99.90;;;;;;5053938;28;20099;-83
2022/06/05 13:04:18;;;;;;;4.10;1.85;;;21.30;99.90;;;;;;5035680;28;20033;-85
2022/06/05 13:06:47;;;;;;;6.57;1.92;;;21.20;99.90;;;;;;5035750;28;20021;-82
2022/06/05 13:09:15;;;;;;;4.78;1.90;;;21.20;99.90;;;;;;5035735;28;20013;-83
2022/06/05 13:11:50;;;;;;;6.15;1.95;;;21.20;99.90;;;;;;5035675;28;20485;-82
2022/06/05 13:14:30;;;;;;;8.35;1.55;;;21.20;99.90;;;;;;5035592;28;20025;-82
2022/06/05 13:16:56;;;;;;;8.43;2.13;;;21.30;99.90;;;;;;5035914;28;20068;-83
2022/06/05 13:19:27;;;;;;;5.07;1.90;;;21.30;99.90;;;;;;5035609;28;20025;-83
2022/06/05 13:22:23;;;;;;;3.60;1.80;;;21.30;99.90;;;;;;5031862;28;20045;-84
2022/06/05 13:24:56;;;;;;;6.53;2.28;;;21.20;99.90;;;;;;5015667;28;20499;-83
2022/06/05 13:28:07;;;;;;;6.03;2.10;;;21.20;99.90;;;;;;5033470;28;20029;-83
2022/06/05 13:30:53;;;;;;;4.97;1.80;;;21.20;99.90;;;;;;4987504;28;20034;-84
2022/06/05 13:33:33;;;;;;;6.07;2.20;;;21.20;99.90;;;;;;5015656;28;20061;-84
2022/06/05 13:36:07;;;;;;;4.13;1.58;;;21.20;99.90;;;;;;5015593;28;20021;-82
2022/06/05 13:38:50;;;;;;;4.65;1.88;;;21.20;99.90;;;;;;5015706;28;20030;-84
2022/06/05 13:41:37;;;;;;;4.05;2.00;;;21.20;99.90;;;;;;5015512;28;20036;-83